Terminal Aerodrome Forecast
Issued by NWS Louisville, KY

Home | Current Version | Previous Version | Text Only | Print | Product List | Glossary Off
Versions: 1 2 3 4 5 6 7 8 9 10 11 12 13 14

000
FTUS43 KLMK 111100
TAFLEX
TAF
KLEX 111130Z 1112/1212 04003KT P6SM SCT250
     FM111500 09003KT P6SM SCT050 SCT250
     FM112300 16002KT P6SM SCT200=

USA.gov is the U.S. government's official web portal to all federal, state and local government web resources and services.